Nicholasville, KY (40340)

12:35 AM EDT del 03 Settembre 2014 (GMT -0400)
Clearwater | Change Station
CLOSE
Current Station
Stazione meteo personale
Location: Lexington, KY
Altitudine: 922 ft
Stazioni meteo nelle vicinanze

Alt. 922 ft 37.96 °N, 84.51 °W | Updated 11 minutes ago

Sereno
Sereno
69.1 °F
Sembra 69.1 °F
N
0.0
Vento Variabile Vento da NO
Gusts 0.0 mph

Oggi
Massima -- | Minima -- °F
--% Possibilità di precip.
Ieri
Massima -- | Minima -- °F
Precip. -- in
7:09 AM 8:04 PM
Primo quarto, 58% visible
Pressione 30.00 in
Visibilità 10.0 miglia
Nuvole Alcuni 3700 ft
Punto di rugiada 68 °F
Umidità 97%
Piovosità 0.00 in
Spessore del manto nevoso Non disponibile.
Raggi UV 0 fuori da 12
Polline 10.20 fuori da 12
Qualità dell'aria Non disponibile.
Flu Activity Non disponibile.
METAR KLEX 030354Z 19003KT 10SM FEW037 22/20 A3003 RMK AO2 SLP158 T02220200

More Conditions Fewer Conditions

Pressione 30.00 in
Visibilità 10.0 miglia
Nuvole Alcuni 3700 ft
Punto di rugiada 68 °F
Umidità 97%
Piovosità 0.00 in
Spessore del manto nevoso Non disponibile.
Raggi UV 0 fuori da 12
Polline 10.20 fuori da 12
Qualità dell'aria Non disponibile.
Flu Activity Non disponibile.
METAR KLEX 030354Z 19003KT 10SM FEW037 22/20 A3003 RMK AO2 SLP158 T02220200

More Conditions Fewer Conditions

10-Day Weather Forecast

Almanac

Astronomia

Sep. 03, 2014 Alba Tramonto
Ora attuale 07:09 EDT 20:04 EDT
Crepuscolo civile 06:43 EDT 20:31 EDT
Crepuscolo nautico 06:11 EDT 21:03 EDT
Crepuscolo astronomico 05:38 EDT 21:35 EDT
Luna 15:42 EDT 01:06 EDT
Estensione della luce visibile 13h 48m
Lunghezza del giorno
12h 54m
Tomorrow will be 2m 21s shorter.
Primo quarto, 58% of the Moon is Illuminated
Oggi
Primo quarto
Set 8
Luna piena
Set 15
Ultimo quarto
Set 24
Nuovo
Ott 1
Primo quarto

Minime e massime di ieri

State Highs State Lows

Community

WunderPhotos

Upload Photos

1,749,870 foto caricate!

Nearby

Profondità neve

Stazione Profondità Altitudine
Non sono state evidenziate nuove nevicate

Attività sismica

Città  Distanza Mag. Data & Ora
Non sono state riportate attività sismiche nelle vicinanze.
Minimo Magnitudo Mostrato è 2.5.

Temperature delle acque costiere

Località Temperatura
Nessun dato dalle stazioni

Stazioni meteo nelle vicinanze